createdAt,value
2023-02-24T00:00:32.508Z,5.90
2023-02-24T00:03:06.061Z,5.90
2023-02-24T00:05:36.209Z,5.90
2023-02-24T00:08:04.323Z,5.90
2023-02-24T00:10:32.856Z,5.90
2023-02-24T00:13:02.322Z,5.90
2023-02-24T00:17:59.451Z,5.90
2023-02-24T00:20:27.617Z,5.80
2023-02-24T00:22:55.815Z,5.80
2023-02-24T00:25:23.965Z,5.80
2023-02-24T00:27:55.679Z,5.70
2023-02-24T00:30:25.217Z,5.70
2023-02-24T00:35:21.837Z,5.70
2023-02-24T00:37:51.475Z,5.60
2023-02-24T00:42:54.088Z,5.60
2023-02-24T00:45:22.163Z,5.60
2023-02-24T00:47:51.649Z,5.70
2023-02-24T00:52:49.762Z,5.60
2023-02-24T00:55:19.242Z,5.50
2023-02-24T00:57:47.337Z,5.60
2023-02-24T01:00:16.684Z,5.60
2023-02-24T01:02:47.284Z,4.50
2023-02-24T01:05:16.942Z,5.60
2023-02-24T01:10:13.508Z,5.60
2023-02-24T01:12:49.798Z,5.70
2023-02-24T01:15:19.446Z,5.70
2023-02-24T01:20:19.755Z,5.70
2023-02-24T01:22:50.286Z,5.70
2023-02-24T01:25:20.373Z,5.70
2023-02-24T01:27:49.038Z,5.70
2023-02-24T01:30:18.405Z,5.70
2023-02-24T01:32:48.200Z,5.70
2023-02-24T01:37:47.332Z,5.80
2023-02-24T01:40:21.639Z,5.80
2023-02-24T01:42:50.775Z,5.80
2023-02-24T01:45:22.765Z,5.80
2023-02-24T01:47:52.033Z,5.80
2023-02-24T01:50:23.474Z,5.80
2023-02-24T01:52:56.232Z,5.80
2023-02-24T01:55:29.252Z,5.80
2023-02-24T01:57:59.844Z,5.80
2023-02-24T02:03:27.786Z,5.90
2023-02-24T02:06:01.111Z,6.00
2023-02-24T02:08:31.506Z,6.00
2023-02-24T02:11:04.439Z,6.00
2023-02-24T02:16:25.919Z,6.10
2023-02-24T02:19:03.651Z,6.10
2023-02-24T02:22:17.598Z,6.10
2023-02-24T02:24:53.687Z,6.00
2023-02-24T02:27:34.667Z,6.00
2023-02-24T02:30:20.121Z,6.10
2023-02-24T02:33:13.200Z,6.00
2023-02-24T02:35:47.431Z,6.10
2023-02-24T02:38:26.211Z,6.00
2023-02-24T02:41:01.175Z,6.00
2023-02-24T02:43:35.349Z,6.00
2023-02-24T02:46:10.181Z,6.00
2023-02-24T02:48:47.567Z,6.00
2023-02-24T02:51:20.875Z,6.00
2023-02-24T02:53:56.548Z,6.00
2023-02-24T02:56:30.686Z,6.00
2023-02-24T02:59:01.854Z,6.00
2023-02-24T03:01:32.916Z,6.00
2023-02-24T03:04:05.788Z,6.00
2023-02-24T03:06:38.832Z,6.00
2023-02-24T03:09:15.908Z,6.00
2023-02-24T03:11:48.250Z,6.00
2023-02-24T03:14:18.832Z,5.90
2023-02-24T03:16:50.467Z,6.00
2023-02-24T03:19:22.880Z,5.90
2023-02-24T03:22:02.154Z,5.90
2023-02-24T03:24:31.851Z,5.90
2023-02-24T03:27:07.852Z,5.90
2023-02-24T03:29:40.687Z,7.90
2023-02-24T03:32:13.574Z,5.90
2023-02-24T03:35:00.123Z,5.90
2023-02-24T03:37:30.365Z,5.90
2023-02-24T03:40:01.080Z,5.90
2023-02-24T03:42:33.844Z,5.90
2023-02-24T03:45:02.107Z,5.90
2023-02-24T03:47:30.340Z,5.90
2023-02-24T03:49:58.481Z,5.90
2023-02-24T03:52:40.043Z,5.90
2023-02-24T03:55:17.932Z,6.00
2023-02-24T03:58:00.083Z,6.00
2023-02-24T04:00:36.115Z,6.00
2023-02-24T04:03:13.694Z,6.10
2023-02-24T04:05:47.643Z,6.10
2023-02-24T04:08:20.291Z,6.10
2023-02-24T04:10:53.659Z,6.10
2023-02-24T04:13:48.188Z,6.10
2023-02-24T04:16:40.078Z,6.10
2023-02-24T04:19:31.102Z,6.00
2023-02-24T04:22:24.614Z,6.00
2023-02-24T04:24:58.352Z,6.00
2023-02-24T04:27:29.261Z,6.00
2023-02-24T04:30:01.113Z,6.00
2023-02-24T04:32:31.770Z,6.00
2023-02-24T04:35:04.589Z,6.00
2023-02-24T04:37:34.024Z,6.00
2023-02-24T04:40:10.826Z,6.00
2023-02-24T04:42:46.417Z,5.90
2023-02-24T04:45:16.488Z,6.00
2023-02-24T04:47:49.531Z,6.00
2023-02-24T04:50:23.062Z,6.00
2023-02-24T04:52:52.718Z,6.00
2023-02-24T04:55:24.472Z,6.00
2023-02-24T04:57:54.411Z,6.00
2023-02-24T05:00:22.954Z,6.10
2023-02-24T05:02:52.050Z,6.10
2023-02-24T05:05:25.549Z,6.40
2023-02-24T05:07:55.274Z,6.10
2023-02-24T05:10:27.911Z,6.10
2023-02-24T05:12:58.257Z,6.10
2023-02-24T05:18:01.157Z,6.10
2023-02-24T05:20:47.042Z,6.10
2023-02-24T05:23:16.991Z,6.20
2023-02-24T05:25:46.782Z,4.00
2023-02-24T05:28:15.514Z,6.20
2023-02-24T05:30:43.574Z,6.20
2023-02-24T05:33:11.716Z,6.20
2023-02-24T05:35:39.772Z,6.20
2023-02-24T05:38:08.313Z,6.20
2023-02-24T05:40:36.415Z,6.30
2023-02-24T05:43:05.868Z,6.20
2023-02-24T05:45:34.522Z,6.20
2023-02-24T05:48:05.829Z,6.20
2023-02-24T05:50:33.856Z,6.20
2023-02-24T05:53:03.453Z,6.20
2023-02-24T06:00:39.077Z,6.20
2023-02-24T06:03:10.479Z,6.20
2023-02-24T06:05:39.802Z,6.30
2023-02-24T06:08:11.771Z,6.30
2023-02-24T06:10:41.436Z,6.30
2023-02-24T06:13:10.411Z,6.30
2023-02-24T06:15:41.794Z,6.30
2023-02-24T06:23:08.864Z,6.40
2023-02-24T06:25:38.613Z,6.40
2023-02-24T06:28:06.882Z,6.50
2023-02-24T06:30:35.129Z,6.50
2023-02-24T06:33:05.868Z,6.50
2023-02-24T06:40:32.472Z,6.50
2023-02-24T06:43:00.522Z,6.50
2023-02-24T06:45:28.654Z,6.60
2023-02-24T06:47:58.080Z,6.60
2023-02-24T06:50:28.827Z,6.60
2023-02-24T06:53:00.740Z,6.60
2023-02-24T06:55:29.282Z,6.60
2023-02-24T06:57:59.336Z,6.60
2023-02-24T07:00:37.981Z,6.60
2023-02-24T07:03:14.964Z,6.60
2023-02-24T07:05:50.406Z,6.70
2023-02-24T07:08:21.113Z,6.80
2023-02-24T07:10:54.183Z,6.80
2023-02-24T07:13:22.424Z,6.80
2023-02-24T07:15:51.107Z,6.80
2023-02-24T07:18:20.301Z,6.80
2023-02-24T07:20:50.264Z,6.80
2023-02-24T07:23:18.446Z,6.80
2023-02-24T07:25:47.743Z,6.90
2023-02-24T07:28:19.195Z,6.90
2023-02-24T07:30:47.401Z,7.10
2023-02-24T07:33:15.544Z,7.10
2023-02-24T07:38:17.458Z,7.20
2023-02-24T07:40:46.932Z,7.30
2023-02-24T07:43:16.032Z,7.30
2023-02-24T07:45:44.598Z,7.40
2023-02-24T07:53:13.044Z,7.50
2023-02-24T07:55:41.742Z,7.50
2023-02-24T07:58:10.700Z,7.60
2023-02-24T08:00:58.729Z,7.70
2023-02-24T08:03:29.997Z,7.80
2023-02-24T08:06:12.929Z,7.70
2023-02-24T08:08:57.948Z,7.70
2023-02-24T08:11:27.406Z,7.80
2023-02-24T08:13:57.953Z,7.80
2023-02-24T08:19:07.655Z,8.00
2023-02-24T08:21:38.305Z,8.00
2023-02-24T08:24:09.352Z,8.00
2023-02-24T08:29:13.500Z,8.00
2023-02-24T08:31:43.233Z,8.10
2023-02-24T08:34:16.116Z,8.10
2023-02-24T08:36:48.439Z,8.20
2023-02-24T08:39:19.312Z,8.10
2023-02-24T08:44:20.472Z,8.10
2023-02-24T08:46:50.348Z,8.10
2023-02-24T08:49:19.209Z,8.10
2023-02-24T08:51:52.901Z,8.00
2023-02-24T08:54:27.554Z,8.00
2023-02-24T08:56:56.919Z,8.00
2023-02-24T08:59:39.292Z,8.10
2023-02-24T09:02:27.348Z,8.20
2023-02-24T09:04:57.648Z,8.00
2023-02-24T09:07:27.471Z,8.10
2023-02-24T09:09:57.408Z,8.30
2023-02-24T09:12:28.984Z,8.50
2023-02-24T09:15:01.020Z,8.90
2023-02-24T09:17:49.952Z,8.90
2023-02-24T09:20:38.318Z,8.80
2023-02-24T09:25:44.576Z,8.90
2023-02-24T09:28:17.386Z,8.80
2023-02-24T09:30:54.285Z,8.60
2023-02-24T09:33:25.106Z,8.70
2023-02-24T09:36:03.165Z,8.80
2023-02-24T09:38:49.627Z,8.80
2023-02-24T09:41:33.276Z,8.70
2023-02-24T09:44:07.809Z,8.50
2023-02-24T09:46:53.835Z,8.50
2023-02-24T09:49:25.421Z,8.40
2023-02-24T09:54:35.559Z,8.50
2023-02-24T09:57:16.707Z,8.50
2023-02-24T10:00:01.522Z,8.50
2023-02-24T10:02:45.235Z,8.30
2023-02-24T10:05:27.331Z,8.30
2023-02-24T10:07:58.185Z,8.30
2023-02-24T10:10:30.031Z,8.30
2023-02-24T10:13:13.226Z,8.30
2023-02-24T10:15:59.195Z,8.20
2023-02-24T10:18:33.716Z,8.30
2023-02-24T10:21:15.514Z,8.30
2023-02-24T10:24:05.622Z,8.40
2023-02-24T10:26:51.339Z,8.60
2023-02-24T10:29:40.455Z,8.60
2023-02-24T10:32:23.885Z,8.60
2023-02-24T10:34:52.532Z,8.60
2023-02-24T10:37:28.655Z,8.60
2023-02-24T10:39:59.409Z,8.70
2023-02-24T10:42:31.952Z,8.70
2023-02-24T10:45:18.606Z,8.70
2023-02-24T10:47:56.800Z,8.80
2023-02-24T10:50:29.766Z,8.80
2023-02-24T10:53:26.567Z,8.90
2023-02-24T10:56:15.073Z,8.90
2023-02-24T10:58:56.793Z,8.80
2023-02-24T11:01:43.623Z,8.90
2023-02-24T11:04:33.399Z,8.90
2023-02-24T11:07:09.787Z,8.90
2023-02-24T11:09:44.165Z,8.80
2023-02-24T11:12:37.824Z,8.70
2023-02-24T11:15:25.262Z,8.80
2023-02-24T11:17:57.081Z,9.00
2023-02-24T11:20:46.182Z,9.10
2023-02-24T11:23:19.830Z,9.10
2023-02-24T11:25:50.196Z,9.20
2023-02-24T11:28:30.152Z,9.00
2023-02-24T11:31:10.405Z,8.90
2023-02-24T11:33:47.919Z,8.90
2023-02-24T11:36:24.391Z,8.90
2023-02-24T11:39:17.116Z,8.90
2023-02-24T11:41:53.308Z,8.90
2023-02-24T11:44:28.329Z,8.80
2023-02-24T11:46:59.212Z,8.70
2023-02-24T11:49:34.692Z,8.60
2023-02-24T11:52:05.510Z,8.60
2023-02-24T11:54:41.767Z,8.70
2023-02-24T11:57:17.729Z,8.70
2023-02-24T11:59:50.387Z,8.80
2023-02-24T12:02:27.086Z,8.70
2023-02-24T12:05:01.685Z,8.70
2023-02-24T12:07:33.198Z,8.60
2023-02-24T12:10:16.019Z,8.70
2023-02-24T12:12:52.633Z,8.80
2023-02-24T12:15:24.984Z,8.80
2023-02-24T12:18:01.944Z,8.90
2023-02-24T12:20:38.373Z,8.80
2023-02-24T12:23:17.320Z,8.90
2023-02-24T12:26:09.218Z,8.90
2023-02-24T12:29:04.416Z,8.70
2023-02-24T12:31:39.068Z,8.70
2023-02-24T12:34:11.999Z,8.80
2023-02-24T12:36:56.858Z,8.80
2023-02-24T12:39:31.845Z,8.80
2023-02-24T12:42:08.624Z,8.80
2023-02-24T12:44:45.445Z,8.90
2023-02-24T12:47:17.563Z,9.00
2023-02-24T12:50:08.037Z,8.90
2023-02-24T12:52:49.028Z,8.80
2023-02-24T12:55:23.532Z,8.90
2023-02-24T12:58:02.895Z,8.80
2023-02-24T13:00:39.188Z,8.80
2023-02-24T13:03:21.161Z,8.90
2023-02-24T13:05:52.822Z,8.10
2023-02-24T13:08:34.826Z,8.90
2023-02-24T13:11:13.244Z,9.00
2023-02-24T13:13:50.512Z,9.00
2023-02-24T13:16:29.574Z,8.90
2023-02-24T13:19:06.621Z,8.90
2023-02-24T13:21:35.249Z,8.90
2023-02-24T13:24:04.891Z,8.90
2023-02-24T13:26:33.752Z,8.90
2023-02-24T13:29:10.355Z,8.90
2023-02-24T13:31:43.803Z,8.90
2023-02-24T13:34:29.852Z,8.90
2023-02-24T13:36:58.589Z,8.80
2023-02-24T13:39:35.352Z,8.80
2023-02-24T13:42:05.908Z,8.20
2023-02-24T13:44:34.699Z,8.90
2023-02-24T13:47:35.729Z,8.80
2023-02-24T13:50:25.378Z,8.90
2023-02-24T13:53:04.582Z,8.80
2023-02-24T13:55:51.985Z,8.80
2023-02-24T13:58:50.262Z,8.80
2023-02-24T14:01:20.462Z,8.90
2023-02-24T14:04:04.466Z,8.80
2023-02-24T14:06:32.874Z,9.00
2023-02-24T14:09:03.886Z,8.90
2023-02-24T14:11:37.153Z,8.90
2023-02-24T14:16:39.705Z,9.50
2023-02-24T14:19:13.875Z,9.90
2023-02-24T14:21:49.186Z,10.00
2023-02-24T14:24:18.461Z,9.80
2023-02-24T14:26:51.278Z,9.90
2023-02-24T14:29:22.057Z,9.80
2023-02-24T14:31:52.315Z,9.70
2023-02-24T14:34:23.217Z,9.70
2023-02-24T14:36:54.166Z,9.60
2023-02-24T14:39:24.437Z,9.60
2023-02-24T14:42:11.286Z,9.60
2023-02-24T14:44:44.479Z,9.50
2023-02-24T14:47:15.332Z,9.60
2023-02-24T14:49:52.994Z,9.70
2023-02-24T14:52:28.578Z,9.60
2023-02-24T14:55:00.574Z,9.60
2023-02-24T14:57:34.397Z,9.50
2023-02-24T15:00:11.516Z,9.50
2023-02-24T15:02:44.855Z,9.50
2023-02-24T15:05:13.096Z,9.40
2023-02-24T15:07:45.227Z,9.50
2023-02-24T15:10:21.632Z,9.40
2023-02-24T15:12:55.032Z,9.30
2023-02-24T15:15:26.971Z,9.30
2023-02-24T15:17:57.935Z,9.20
2023-02-24T15:20:31.822Z,9.20
2023-02-24T15:23:00.446Z,9.20
2023-02-24T15:25:41.948Z,9.20
2023-02-24T15:28:25.976Z,9.20
2023-02-24T15:31:02.420Z,9.20
2023-02-24T15:33:36.591Z,9.20
2023-02-24T15:36:11.169Z,9.20
2023-02-24T15:38:41.844Z,9.20
2023-02-24T15:41:12.359Z,9.20
2023-02-24T15:43:48.438Z,9.10
2023-02-24T15:46:23.056Z,9.10
2023-02-24T15:48:53.081Z,9.00
2023-02-24T15:51:33.215Z,9.00
2023-02-24T15:54:02.338Z,9.00
2023-02-24T15:56:32.880Z,10.10
2023-02-24T15:59:02.644Z,8.90
2023-02-24T16:01:32.632Z,8.90
2023-02-24T16:06:29.972Z,8.90
2023-02-24T16:08:59.310Z,8.90
2023-02-24T16:11:30.091Z,8.80
2023-02-24T16:13:59.741Z,8.80
2023-02-24T16:16:29.528Z,8.80
2023-02-24T16:21:26.077Z,8.80
2023-02-24T16:23:54.119Z,8.80
2023-02-24T16:26:24.095Z,7.70
2023-02-24T16:28:55.284Z,8.50
2023-02-24T16:31:23.800Z,8.70
2023-02-24T16:33:55.572Z,8.70
2023-02-24T16:36:25.437Z,8.70
2023-02-24T16:38:53.771Z,8.60
2023-02-24T16:41:21.992Z,8.60
2023-02-24T16:43:50.054Z,8.60
2023-02-24T16:46:21.308Z,8.60
2023-02-24T16:48:53.364Z,8.60
2023-02-24T16:51:23.503Z,8.50
2023-02-24T16:53:51.684Z,8.40
2023-02-24T16:58:48.521Z,8.40
2023-02-24T17:01:21.125Z,8.40
2023-02-24T17:03:51.752Z,8.40
2023-02-24T17:06:22.323Z,8.40
2023-02-24T17:08:53.294Z,8.30
2023-02-24T17:11:22.748Z,8.30
2023-02-24T17:13:50.790Z,8.20
2023-02-24T17:18:47.442Z,8.20
2023-02-24T17:21:16.841Z,8.10
2023-02-24T17:26:16.237Z,5.80
2023-02-24T17:28:44.808Z,9.50
2023-02-24T17:31:12.946Z,8.10
2023-02-24T17:33:41.522Z,8.00
2023-02-24T17:41:07.087Z,7.90
2023-02-24T17:43:36.537Z,7.90
2023-02-24T17:46:07.095Z,7.90
2023-02-24T17:48:35.600Z,7.90
2023-02-24T17:51:03.742Z,7.90
2023-02-24T17:56:04.811Z,7.80
2023-02-24T18:01:03.989Z,7.80
2023-02-24T18:03:32.188Z,7.80
2023-02-24T18:06:01.335Z,7.80
2023-02-24T18:08:30.590Z,7.80
2023-02-24T18:10:59.929Z,7.80
2023-02-24T18:13:29.055Z,7.80
2023-02-24T18:15:57.263Z,7.80
2023-02-24T18:18:27.416Z,7.80
2023-02-24T18:20:58.645Z,7.70
2023-02-24T18:23:26.771Z,7.70
2023-02-24T18:28:23.285Z,7.60
2023-02-24T18:33:20.383Z,7.50
2023-02-24T18:35:57.128Z,7.40
2023-02-24T18:40:59.114Z,7.40
2023-02-24T18:46:00.345Z,7.20
2023-02-24T18:48:29.447Z,7.20
2023-02-24T18:50:59.784Z,7.10
2023-02-24T18:53:31.001Z,7.10
2023-02-24T18:56:03.324Z,7.00
2023-02-24T18:58:32.183Z,7.00
2023-02-24T19:03:28.645Z,6.90
2023-02-24T19:05:58.015Z,6.90
2023-02-24T19:08:26.755Z,6.90
2023-02-24T19:13:24.032Z,6.90
2023-02-24T19:15:52.122Z,6.90
2023-02-24T19:18:20.398Z,6.80
2023-02-24T19:20:48.707Z,6.80
2023-02-24T19:23:18.158Z,6.80
2023-02-24T19:30:43.281Z,6.70
2023-02-24T19:33:11.524Z,6.70
2023-02-24T19:35:42.039Z,6.70
2023-02-24T19:38:13.403Z,6.70
2023-02-24T19:40:43.148Z,6.70
2023-02-24T19:43:11.369Z,6.60
2023-02-24T19:45:41.929Z,6.60
2023-02-24T19:48:10.777Z,6.60
2023-02-24T19:50:40.951Z,6.60
2023-02-24T19:55:37.697Z,6.60
2023-02-24T19:58:07.140Z,6.60
2023-02-24T20:05:36.866Z,6.50
2023-02-24T20:08:05.301Z,6.50
2023-02-24T20:13:01.681Z,6.50
2023-02-24T20:15:32.333Z,6.50
2023-02-24T20:18:03.292Z,6.50
2023-02-24T20:20:31.644Z,6.40
2023-02-24T20:23:00.130Z,6.40
2023-02-24T20:25:29.024Z,6.40
2023-02-24T20:30:25.368Z,6.40
2023-02-24T20:32:55.141Z,6.40
2023-02-24T20:37:55.061Z,6.20
2023-02-24T20:40:23.489Z,6.30
2023-02-24T20:47:48.328Z,6.20
2023-02-24T20:50:18.074Z,6.30
2023-02-24T20:57:43.043Z,5.90
2023-02-24T21:00:12.291Z,5.50
2023-02-24T21:02:41.240Z,5.20
2023-02-24T21:05:10.197Z,5.10
2023-02-24T21:07:40.215Z,5.00
2023-02-24T21:10:08.638Z,4.90
2023-02-24T21:12:36.750Z,4.80
2023-02-24T21:15:06.342Z,4.80
2023-02-24T21:17:34.865Z,4.80
2023-02-24T21:20:02.922Z,4.80
2023-02-24T21:22:31.398Z,4.70
2023-02-24T21:25:01.239Z,4.70
2023-02-24T21:27:29.304Z,4.70
2023-02-24T21:29:57.350Z,4.60
2023-02-24T21:32:25.534Z,4.60
2023-02-24T21:34:53.672Z,4.60
2023-02-24T21:39:50.272Z,4.50
2023-02-24T21:42:22.604Z,4.50
2023-02-24T21:44:51.909Z,4.50
2023-02-24T21:47:20.456Z,4.50
2023-02-24T21:49:48.496Z,4.50
2023-02-24T21:52:16.546Z,4.50
2023-02-24T21:54:44.641Z,4.50
2023-02-24T21:57:12.653Z,4.50
2023-02-24T21:59:42.119Z,4.40
2023-02-24T22:02:13.963Z,4.30
2023-02-24T22:07:10.437Z,4.10
2023-02-24T22:09:38.852Z,4.00
2023-02-24T22:12:07.370Z,3.90
2023-02-24T22:14:35.715Z,3.80
2023-02-24T22:17:05.166Z,3.80
2023-02-24T22:19:33.242Z,3.70
2023-02-24T22:22:01.277Z,3.60
2023-02-24T22:24:29.485Z,3.60
2023-02-24T22:26:57.622Z,3.50
2023-02-24T22:29:25.712Z,3.40
2023-02-24T22:31:53.811Z,3.30
2023-02-24T22:34:23.285Z,3.30
2023-02-24T22:36:51.382Z,3.20
2023-02-24T22:39:19.411Z,3.10
2023-02-24T22:41:47.882Z,3.10
2023-02-24T22:46:47.814Z,3.00
2023-02-24T22:49:15.878Z,3.00
2023-02-24T22:54:13.786Z,2.90
2023-02-24T23:04:15.575Z,2.90
2023-02-24T23:06:47.178Z,2.80
2023-02-24T23:09:19.733Z,2.80
2023-02-24T23:11:48.807Z,2.80
2023-02-24T23:14:17.772Z,2.80
2023-02-24T23:16:47.336Z,2.70
2023-02-24T23:19:17.811Z,2.70
2023-02-24T23:21:49.735Z,2.70
2023-02-24T23:24:19.585Z,2.80
2023-02-24T23:26:49.207Z,2.70
2023-02-24T23:29:19.298Z,2.70
2023-02-24T23:31:47.730Z,2.60
2023-02-24T23:34:16.693Z,2.60
2023-02-24T23:36:47.906Z,2.60
2023-02-24T23:39:18.076Z,2.60
2023-02-24T23:41:46.080Z,2.60
2023-02-24T23:44:14.315Z,2.60
2023-02-24T23:46:42.741Z,2.70
2023-02-24T23:49:10.998Z,2.70
2023-02-24T23:51:48.125Z,2.70
2023-02-24T23:54:19.036Z,2.70
2023-02-24T23:56:47.105Z,2.70
2023-02-24T23:59:15.724Z,2.80
